Warning: Javascript must be enabled to use all the features on this page!


Page Loading - Please Wait...

* We've detected you're using a mobile device. Find our Next Generation Station Page here.
Click to hideNews Bulletins

Peak Streamflow for the Nation

USGS 05579500 LAKE FORK NEAR CORNLAND, IL

Logan County, Illinois
Hydrologic Unit Code 07130009
Latitude  39°57'06", Longitude  89°23'08" NAD83
Drainage area 214  square miles
Gage datum 555.06 feet above NGVD29
Output formats
Table
Graph
Tab-separated file
peakfq (watstore) format
Reselect output format
Water
Year
Date Gage
Height
(feet)
Stream-
flow
(cfs)
1943 1943-05 23.40Bd 29,0007,Bd
1948 1948-06-27 13.90 1,660
1949 1949-01-28   1,2001
1950 1950-01-15 17.52 2,440
1951 1951-06-29 21.60 4,570
1952 1952-04-23 15.07 1,520
1953 1953-03-15 14.44 1,340
1954 1954-06-01 4.94 152
1955 1955-06-12 12.68 1,020
1956 1955-10-07 10.25 680
1957 1957-04-28 18.65 3,760
1958 1958-07-28 16.10 1,970
1959 1959-02-10 21.00 4,900
1960 1960-06-25 15.81 2,060
1961 1961-05-09 18.40 3,250
1962 1962-03-21 14.70 1,710
1963 1963-03-04 15.56 1,980
1964 1964-04-21 16.40 2,280
1965 1965-06-02 11.53 1,010
1966 1966-04-24 12.80 1,250
1967 1967-06-14 15.00 1,800
1968 1968-02-03 18.50 3,150
1969 1969-01-30 13.66 1,230
1970 1970-06-16 19.90 4,130
1971 1971-07-14 8.95 548
1972 1971-12-16   1,0002
1973 1973-04-22   4,7002
1974 1974-06-23 22.53 6,120
1975 1975-01-10 14.84 1,500
1976 1976-03-05 14.82 1,540
1977 1977-05-08 17.00 2,340
1978 1978-08-02 15.11 1,630
1979 1979-04-12 23.11 8,930
1980 1980-03-30 11.00 786
1981 1981-08-03 20.25 4,320
1982 1982-02-24 17.51 2,610
1983 1982-12-04 22.43 7,270
1984 1984-05-27 16.25 2,050
1985 1985-02-24 16.32 2,100
1986 1985-11-28 20.65 4,670
1987 1986-10-05 10.24 678
1988 1988-01-20 14.21 1,400
1989 1989-09-09 14.87 1,620
1990 1990-07-23 18.292 2,930
1991 1991-05-06 21.67 5,970
1992 1992-08-02 19.23 2,780
1993 1993-04-16 17.16 2,070
1994 1994-04-13 21.31 4,300
1995 1995-05-18 20.44 5,140
1996 1996-05-11 18.10 2,820
1997 1997-02-27 12.43 1,150
1998 1998-06-19 15.34 1,740
1999 1999-06-14 15.20 1,710
2000 2000-06-21 14.60 1,570
2001 2001-01-31 17.06 2,230
2002 2002-05-13 20.37 4,900
2003 2003-06-12 14.66 1,590
2004 2003-11-20 15.77 1,850
2005 2005-01-14 20.76 3,930
2006 2006-04-06 16.71 2,110
2007 2007-02-26 16.77 2,140
2008 2008-02-07 19.86 4,490
2009 2009-05-17 20.22 4,880
2010 2009-11-01 17.59 2,580
2011 2011-05-30 14.94 1,720
2012 2012-05-07 6.23 253
2013 2013-04-20 17.28 2,370
2014 2014-02-22 17.74 2,680
2015 2015-07-09 15.62 1,880
2016 2015-12-30 20.86 5,610
2017 2017-05-01 15.85 2,150
2018 2018-09-07 15.78 1,930
2019 2019-05-03 17.37 2,430
2020 2020-05-01 17.47 2,620
2021 2021-06-26 13.37 1,420
?
  Peak Gage-Height Qualification Codes.
?
  Peak Streamflow Qualification Codes.